sensor_id;sensor_type;location;lat;lon;timestamp;P1;durP1;ratioP1;P2;durP2;ratioP2
58372;SDS011;44177;43.356;27.672;2022-09-13T00:00:47;0.80;;;0.80;;
58372;SDS011;44177;43.356;27.672;2022-09-13T00:03:17;0.70;;;0.70;;
58372;SDS011;44177;43.356;27.672;2022-09-13T00:05:43;1.83;;;0.70;;
58372;SDS011;44177;43.356;27.672;2022-09-13T00:08:08;1.13;;;0.70;;
58372;SDS011;44177;43.356;27.672;2022-09-13T00:10:35;1.40;;;0.80;;
58372;SDS011;44177;43.356;27.672;2022-09-13T00:13:03;0.68;;;0.60;;
58372;SDS011;44177;43.356;27.672;2022-09-13T00:15:33;0.65;;;0.65;;
58372;SDS011;44177;43.356;27.672;2022-09-13T00:18:00;1.75;;;0.82;;
58372;SDS011;44177;43.356;27.672;2022-09-13T00:20:26;0.70;;;0.70;;
58372;SDS011;44177;43.356;27.672;2022-09-13T00:22:51;0.80;;;0.80;;
58372;SDS011;44177;43.356;27.672;2022-09-13T00:25:17;0.90;;;0.80;;
58372;SDS011;44177;43.356;27.672;2022-09-13T00:27:43;0.93;;;0.60;;
58372;SDS011;44177;43.356;27.672;2022-09-13T00:30:09;2.65;;;0.75;;
58372;SDS011;44177;43.356;27.672;2022-09-13T00:32:35;1.15;;;0.75;;
58372;SDS011;44177;43.356;27.672;2022-09-13T00:35:02;0.60;;;0.60;;
58372;SDS011;44177;43.356;27.672;2022-09-13T00:37:30;0.70;;;0.70;;
58372;SDS011;44177;43.356;27.672;2022-09-13T00:39:57;1.05;;;0.55;;
58372;SDS011;44177;43.356;27.672;2022-09-13T00:42:26;0.65;;;0.57;;
58372;SDS011;44177;43.356;27.672;2022-09-13T00:52:48;0.85;;;0.82;;
58372;SDS011;44177;43.356;27.672;2022-09-13T00:55:25;0.50;;;0.50;;
58372;SDS011;44177;43.356;27.672;2022-09-13T00:57:54;1.17;;;0.70;;
58372;SDS011;44177;43.356;27.672;2022-09-13T01:00:25;0.70;;;0.70;;
58372;SDS011;44177;43.356;27.672;2022-09-13T01:02:52;0.60;;;0.55;;
58372;SDS011;44177;43.356;27.672;2022-09-13T01:05:24;0.80;;;0.80;;
58372;SDS011;44177;43.356;27.672;2022-09-13T01:07:54;0.70;;;0.70;;
58372;SDS011;44177;43.356;27.672;2022-09-13T01:10:21;0.77;;;0.77;;
58372;SDS011;44177;43.356;27.672;2022-09-13T01:12:53;0.73;;;0.70;;
58372;SDS011;44177;43.356;27.672;2022-09-13T01:15:23;1.00;;;0.60;;
58372;SDS011;44177;43.356;27.672;2022-09-13T01:17:49;0.77;;;0.70;;
58372;SDS011;44177;43.356;27.672;2022-09-13T01:20:16;0.98;;;0.70;;
58372;SDS011;44177;43.356;27.672;2022-09-13T01:25:28;1.38;;;0.95;;
58372;SDS011;44177;43.356;27.672;2022-09-13T01:28:36;1.42;;;0.70;;
58372;SDS011;44177;43.356;27.672;2022-09-13T01:32:00;0.70;;;0.60;;
58372;SDS011;44177;43.356;27.672;2022-09-13T01:43:24;1.77;;;0.80;;
58372;SDS011;44177;43.356;27.672;2022-09-13T01:46:33;0.93;;;0.60;;
58372;SDS011;44177;43.356;27.672;2022-09-13T01:49:20;0.90;;;0.77;;
58372;SDS011;44177;43.356;27.672;2022-09-13T01:51:58;0.70;;;0.70;;
58372;SDS011;44177;43.356;27.672;2022-09-13T02:02:33;1.20;;;1.10;;
58372;SDS011;44177;43.356;27.672;2022-09-13T02:05:09;1.63;;;0.65;;
58372;SDS011;44177;43.356;27.672;2022-09-13T02:07:41;0.85;;;0.65;;
58372;SDS011;44177;43.356;27.672;2022-09-13T02:10:09;1.25;;;0.80;;
58372;SDS011;44177;43.356;27.672;2022-09-13T02:12:40;0.77;;;0.75;;
58372;SDS011;44177;43.356;27.672;2022-09-13T02:15:09;1.42;;;0.80;;
58372;SDS011;44177;43.356;27.672;2022-09-13T02:17:41;1.52;;;0.80;;
58372;SDS011;44177;43.356;27.672;2022-09-13T02:20:11;1.30;;;0.77;;
58372;SDS011;44177;43.356;27.672;2022-09-13T02:22:44;2.38;;;0.85;;
58372;SDS011;44177;43.356;27.672;2022-09-13T02:25:18;1.05;;;0.80;;
58372;SDS011;44177;43.356;27.672;2022-09-13T02:27:48;0.70;;;0.70;;
58372;SDS011;44177;43.356;27.672;2022-09-13T02:30:18;1.58;;;0.80;;
58372;SDS011;44177;43.356;27.672;2022-09-13T02:32:53;0.80;;;0.80;;
58372;SDS011;44177;43.356;27.672;2022-09-13T02:38:05;0.77;;;0.77;;
58372;SDS011;44177;43.356;27.672;2022-09-13T02:40:38;0.70;;;0.70;;
58372;SDS011;44177;43.356;27.672;2022-09-13T02:43:12;0.60;;;0.60;;
58372;SDS011;44177;43.356;27.672;2022-09-13T02:45:49;1.38;;;0.70;;
58372;SDS011;44177;43.356;27.672;2022-09-13T02:48:24;0.85;;;0.85;;
58372;SDS011;44177;43.356;27.672;2022-09-13T02:53:42;1.02;;;0.80;;
58372;SDS011;44177;43.356;27.672;2022-09-13T03:01:28;0.80;;;0.80;;
58372;SDS011;44177;43.356;27.672;2022-09-13T03:03:55;0.90;;;0.90;;
58372;SDS011;44177;43.356;27.672;2022-09-13T03:06:24;0.80;;;0.80;;
58372;SDS011;44177;43.356;27.672;2022-09-13T03:08:51;2.08;;;0.77;;
58372;SDS011;44177;43.356;27.672;2022-09-13T03:11:38;1.33;;;1.00;;
58372;SDS011;44177;43.356;27.672;2022-09-13T03:22:21;1.48;;;0.77;;
58372;SDS011;44177;43.356;27.672;2022-09-13T03:30:44;0.80;;;0.80;;
58372;SDS011;44177;43.356;27.672;2022-09-13T03:36:11;1.33;;;0.80;;
58372;SDS011;44177;43.356;27.672;2022-09-13T03:38:56;1.38;;;0.90;;
58372;SDS011;44177;43.356;27.672;2022-09-13T03:41:30;0.70;;;0.70;;
58372;SDS011;44177;43.356;27.672;2022-09-13T03:44:01;2.15;;;0.90;;
58372;SDS011;44177;43.356;27.672;2022-09-13T03:46:37;0.75;;;0.75;;
58372;SDS011;44177;43.356;27.672;2022-09-13T03:49:11;0.70;;;0.70;;
58372;SDS011;44177;43.356;27.672;2022-09-13T03:51:39;0.80;;;0.80;;
58372;SDS011;44177;43.356;27.672;2022-09-13T03:54:09;0.75;;;0.75;;
58372;SDS011;44177;43.356;27.672;2022-09-13T03:56:40;0.95;;;0.70;;
58372;SDS011;44177;43.356;27.672;2022-09-13T03:59:05;1.08;;;0.73;;
58372;SDS011;44177;43.356;27.672;2022-09-13T04:01:31;0.85;;;0.80;;
58372;SDS011;44177;43.356;27.672;2022-09-13T04:03:56;1.20;;;0.85;;
58372;SDS011;44177;43.356;27.672;2022-09-13T04:06:23;2.05;;;0.90;;
58372;SDS011;44177;43.356;27.672;2022-09-13T04:08:48;0.70;;;0.70;;
58372;SDS011;44177;43.356;27.672;2022-09-13T04:11:14;1.17;;;0.80;;
58372;SDS011;44177;43.356;27.672;2022-09-13T04:13:39;0.80;;;0.80;;
58372;SDS011;44177;43.356;27.672;2022-09-13T04:16:06;0.82;;;0.70;;
58372;SDS011;44177;43.356;27.672;2022-09-13T04:18:32;1.10;;;1.00;;
58372;SDS011;44177;43.356;27.672;2022-09-13T04:20:59;0.98;;;0.70;;
58372;SDS011;44177;43.356;27.672;2022-09-13T04:23:25;0.70;;;0.70;;
58372;SDS011;44177;43.356;27.672;2022-09-13T04:25:52;0.80;;;0.80;;
58372;SDS011;44177;43.356;27.672;2022-09-13T04:28:19;0.77;;;0.73;;
58372;SDS011;44177;43.356;27.672;2022-09-13T04:30:46;0.80;;;0.80;;
58372;SDS011;44177;43.356;27.672;2022-09-13T04:33:13;0.80;;;0.70;;
58372;SDS011;44177;43.356;27.672;2022-09-13T04:35:38;0.80;;;0.80;;
58372;SDS011;44177;43.356;27.672;2022-09-13T04:38:05;1.80;;;0.90;;
58372;SDS011;44177;43.356;27.672;2022-09-13T04:40:31;0.75;;;0.75;;
58372;SDS011;44177;43.356;27.672;2022-09-13T04:42:57;1.73;;;0.70;;
58372;SDS011;44177;43.356;27.672;2022-09-13T04:45:22;0.70;;;0.70;;
58372;SDS011;44177;43.356;27.672;2022-09-13T04:47:51;1.08;;;0.80;;
58372;SDS011;44177;43.356;27.672;2022-09-13T04:50:18;0.68;;;0.68;;
58372;SDS011;44177;43.356;27.672;2022-09-13T04:52:45;1.58;;;0.80;;
58372;SDS011;44177;43.356;27.672;2022-09-13T04:55:10;0.70;;;0.70;;
58372;SDS011;44177;43.356;27.672;2022-09-13T04:57:36;0.80;;;0.80;;
58372;SDS011;44177;43.356;27.672;2022-09-13T05:00:02;0.60;;;0.60;;
58372;SDS011;44177;43.356;27.672;2022-09-13T05:02:28;0.70;;;0.70;;
58372;SDS011;44177;43.356;27.672;2022-09-13T05:04:54;1.30;;;0.80;;
58372;SDS011;44177;43.356;27.672;2022-09-13T05:07:20;0.90;;;0.90;;
58372;SDS011;44177;43.356;27.672;2022-09-13T05:09:45;1.13;;;0.80;;
58372;SDS011;44177;43.356;27.672;2022-09-13T05:12:11;0.68;;;0.68;;
58372;SDS011;44177;43.356;27.672;2022-09-13T05:14:36;0.77;;;0.77;;
58372;SDS011;44177;43.356;27.672;2022-09-13T05:17:02;0.77;;;0.77;;
58372;SDS011;44177;43.356;27.672;2022-09-13T05:19:27;0.70;;;0.70;;
58372;SDS011;44177;43.356;27.672;2022-09-13T05:21:52;0.80;;;0.70;;
58372;SDS011;44177;43.356;27.672;2022-09-13T05:24:18;0.70;;;0.70;;
58372;SDS011;44177;43.356;27.672;2022-09-13T05:26:43;0.80;;;0.80;;
58372;SDS011;44177;43.356;27.672;2022-09-13T05:29:09;1.52;;;0.75;;
58372;SDS011;44177;43.356;27.672;2022-09-13T05:31:35;1.08;;;1.00;;
58372;SDS011;44177;43.356;27.672;2022-09-13T05:34:04;0.98;;;0.88;;
58372;SDS011;44177;43.356;27.672;2022-09-13T05:36:35;0.85;;;0.85;;
58372;SDS011;44177;43.356;27.672;2022-09-13T05:39:02;1.35;;;0.90;;
58372;SDS011;44177;43.356;27.672;2022-09-13T05:41:28;1.05;;;0.90;;
58372;SDS011;44177;43.356;27.672;2022-09-13T05:43:53;0.85;;;0.85;;
58372;SDS011;44177;43.356;27.672;2022-09-13T05:46:19;0.98;;;0.95;;
58372;SDS011;44177;43.356;27.672;2022-09-13T05:48:46;1.20;;;0.90;;
58372;SDS011;44177;43.356;27.672;2022-09-13T05:53:40;1.13;;;0.90;;
58372;SDS011;44177;43.356;27.672;2022-09-13T05:56:07;1.20;;;0.90;;
58372;SDS011;44177;43.356;27.672;2022-09-13T05:58:33;1.25;;;1.02;;
58372;SDS011;44177;43.356;27.672;2022-09-13T06:01:02;0.77;;;0.77;;
58372;SDS011;44177;43.356;27.672;2022-09-13T06:03:28;1.25;;;1.10;;
58372;SDS011;44177;43.356;27.672;2022-09-13T06:05:54;0.80;;;0.80;;
58372;SDS011;44177;43.356;27.672;2022-09-13T06:08:21;1.00;;;0.90;;
58372;SDS011;44177;43.356;27.672;2022-09-13T06:10:54;1.52;;;1.00;;
58372;SDS011;44177;43.356;27.672;2022-09-13T06:13:24;0.98;;;0.90;;
58372;SDS011;44177;43.356;27.672;2022-09-13T06:15:51;1.05;;;0.98;;
58372;SDS011;44177;43.356;27.672;2022-09-13T06:18:18;1.10;;;1.00;;
58372;SDS011;44177;43.356;27.672;2022-09-13T06:20:44;0.77;;;0.75;;
58372;SDS011;44177;43.356;27.672;2022-09-13T06:23:10;1.13;;;1.02;;
58372;SDS011;44177;43.356;27.672;2022-09-13T06:25:36;0.70;;;0.70;;
58372;SDS011;44177;43.356;27.672;2022-09-13T06:28:02;1.10;;;0.90;;
58372;SDS011;44177;43.356;27.672;2022-09-13T06:30:28;1.40;;;1.05;;
58372;SDS011;44177;43.356;27.672;2022-09-13T06:32:54;0.88;;;0.88;;
58372;SDS011;44177;43.356;27.672;2022-09-13T06:35:23;4.50;;;1.00;;
58372;SDS011;44177;43.356;27.672;2022-09-13T06:37:49;1.33;;;0.93;;
58372;SDS011;44177;43.356;27.672;2022-09-13T06:40:15;0.80;;;0.80;;
58372;SDS011;44177;43.356;27.672;2022-09-13T06:42:41;0.98;;;0.90;;
58372;SDS011;44177;43.356;27.672;2022-09-13T06:45:07;0.90;;;0.90;;
58372;SDS011;44177;43.356;27.672;2022-09-13T06:47:32;0.90;;;0.85;;
58372;SDS011;44177;43.356;27.672;2022-09-13T06:49:58;0.90;;;0.90;;
58372;SDS011;44177;43.356;27.672;2022-09-13T06:52:24;0.95;;;0.80;;
58372;SDS011;44177;43.356;27.672;2022-09-13T06:54:50;1.67;;;1.58;;
58372;SDS011;44177;43.356;27.672;2022-09-13T06:57:16;1.13;;;0.90;;
58372;SDS011;44177;43.356;27.672;2022-09-13T06:59:41;0.85;;;0.85;;
58372;SDS011;44177;43.356;27.672;2022-09-13T07:02:08;2.13;;;0.95;;
58372;SDS011;44177;43.356;27.672;2022-09-13T07:04:34;1.45;;;1.10;;
58372;SDS011;44177;43.356;27.672;2022-09-13T07:07:00;0.70;;;0.70;;
58372;SDS011;44177;43.356;27.672;2022-09-13T07:09:25;0.80;;;0.80;;
58372;SDS011;44177;43.356;27.672;2022-09-13T07:11:52;1.10;;;0.80;;
58372;SDS011;44177;43.356;27.672;2022-09-13T07:14:20;1.02;;;0.80;;
58372;SDS011;44177;43.356;27.672;2022-09-13T07:16:47;0.80;;;0.80;;
58372;SDS011;44177;43.356;27.672;2022-09-13T07:19:14;0.82;;;0.80;;
58372;SDS011;44177;43.356;27.672;2022-09-13T07:21:41;0.70;;;0.70;;
58372;SDS011;44177;43.356;27.672;2022-09-13T07:24:08;1.25;;;1.15;;
58372;SDS011;44177;43.356;27.672;2022-09-13T07:26:33;0.98;;;0.93;;
58372;SDS011;44177;43.356;27.672;2022-09-13T07:29:00;0.80;;;0.80;;
58372;SDS011;44177;43.356;27.672;2022-09-13T07:31:29;1.05;;;0.90;;
58372;SDS011;44177;43.356;27.672;2022-09-13T07:33:57;1.60;;;0.70;;
58372;SDS011;44177;43.356;27.672;2022-09-13T07:36:25;0.80;;;0.80;;
58372;SDS011;44177;43.356;27.672;2022-09-13T07:38:51;0.80;;;0.80;;
58372;SDS011;44177;43.356;27.672;2022-09-13T07:41:18;0.77;;;0.77;;
58372;SDS011;44177;43.356;27.672;2022-09-13T07:43:47;0.73;;;0.73;;
58372;SDS011;44177;43.356;27.672;2022-09-13T07:46:14;1.27;;;0.98;;
58372;SDS011;44177;43.356;27.672;2022-09-13T07:48:42;1.00;;;0.90;;
58372;SDS011;44177;43.356;27.672;2022-09-13T07:51:10;0.77;;;0.77;;
58372;SDS011;44177;43.356;27.672;2022-09-13T07:53:37;0.90;;;0.90;;
58372;SDS011;44177;43.356;27.672;2022-09-13T07:56:05;3.22;;;0.90;;
58372;SDS011;44177;43.356;27.672;2022-09-13T07:58:34;1.92;;;0.90;;
58372;SDS011;44177;43.356;27.672;2022-09-13T08:01:08;0.80;;;0.80;;
58372;SDS011;44177;43.356;27.672;2022-09-13T08:03:36;0.65;;;0.65;;
58372;SDS011;44177;43.356;27.672;2022-09-13T08:06:02;0.70;;;0.70;;
58372;SDS011;44177;43.356;27.672;2022-09-13T08:08:29;1.45;;;0.90;;
58372;SDS011;44177;43.356;27.672;2022-09-13T08:10:55;1.15;;;0.70;;
58372;SDS011;44177;43.356;27.672;2022-09-13T08:13:22;0.77;;;0.77;;
58372;SDS011;44177;43.356;27.672;2022-09-13T08:15:48;0.98;;;0.80;;
58372;SDS011;44177;43.356;27.672;2022-09-13T08:18:14;2.72;;;2.33;;
58372;SDS011;44177;43.356;27.672;2022-09-13T08:20:40;1.90;;;1.65;;
58372;SDS011;44177;43.356;27.672;2022-09-13T08:23:06;3.30;;;1.73;;
58372;SDS011;44177;43.356;27.672;2022-09-13T08:25:33;3.10;;;2.80;;
58372;SDS011;44177;43.356;27.672;2022-09-13T08:28:06;2.17;;;1.95;;
58372;SDS011;44177;43.356;27.672;2022-09-13T08:30:34;4.70;;;3.13;;
58372;SDS011;44177;43.356;27.672;2022-09-13T08:33:02;9.10;;;5.93;;
58372;SDS011;44177;43.356;27.672;2022-09-13T08:35:28;8.15;;;4.85;;
58372;SDS011;44177;43.356;27.672;2022-09-13T08:37:54;7.82;;;4.22;;
58372;SDS011;44177;43.356;27.672;2022-09-13T08:40:21;4.90;;;3.50;;
58372;SDS011;44177;43.356;27.672;2022-09-13T08:45:16;14.07;;;5.10;;
58372;SDS011;44177;43.356;27.672;2022-09-13T08:47:43;9.50;;;4.22;;
58372;SDS011;44177;43.356;27.672;2022-09-13T09:01:07;4.22;;;2.78;;
58372;SDS011;44177;43.356;27.672;2022-09-13T09:04:05;3.92;;;2.40;;
58372;SDS011;44177;43.356;27.672;2022-09-13T09:06:41;5.70;;;2.78;;
58372;SDS011;44177;43.356;27.672;2022-09-13T09:09:12;3.80;;;2.47;;
58372;SDS011;44177;43.356;27.672;2022-09-13T09:11:52;3.88;;;2.67;;
58372;SDS011;44177;43.356;27.672;2022-09-13T09:14:37;3.55;;;2.40;;
58372;SDS011;44177;43.356;27.672;2022-09-13T09:17:52;4.60;;;2.50;;
58372;SDS011;44177;43.356;27.672;2022-09-13T09:20:23;3.42;;;2.33;;
58372;SDS011;44177;43.356;27.672;2022-09-13T09:22:52;2.85;;;1.92;;
58372;SDS011;44177;43.356;27.672;2022-09-13T09:25:19;4.10;;;2.00;;
58372;SDS011;44177;43.356;27.672;2022-09-13T09:27:48;4.70;;;2.40;;
58372;SDS011;44177;43.356;27.672;2022-09-13T09:30:14;3.25;;;2.10;;
58372;SDS011;44177;43.356;27.672;2022-09-13T09:38:55;4.32;;;1.98;;
58372;SDS011;44177;43.356;27.672;2022-09-13T09:41:26;3.22;;;2.13;;
58372;SDS011;44177;43.356;27.672;2022-09-13T09:46:54;2.58;;;1.67;;
58372;SDS011;44177;43.356;27.672;2022-09-13T09:55:30;2.67;;;1.60;;
58372;SDS011;44177;43.356;27.672;2022-09-13T09:58:05;2.90;;;1.80;;
58372;SDS011;44177;43.356;27.672;2022-09-13T10:00:36;2.30;;;1.77;;
58372;SDS011;44177;43.356;27.672;2022-09-13T10:03:33;3.10;;;1.77;;
58372;SDS011;44177;43.356;27.672;2022-09-13T10:08:37;1.65;;;1.55;;
58372;SDS011;44177;43.356;27.672;2022-09-13T10:11:05;2.25;;;1.70;;
58372;SDS011;44177;43.356;27.672;2022-09-13T10:13:31;2.15;;;1.85;;
58372;SDS011;44177;43.356;27.672;2022-09-13T10:16:04;1.70;;;1.45;;
58372;SDS011;44177;43.356;27.672;2022-09-13T10:18:35;1.85;;;1.70;;
58372;SDS011;44177;43.356;27.672;2022-09-13T10:23:42;3.17;;;1.58;;
58372;SDS011;44177;43.356;27.672;2022-09-13T10:26:10;2.20;;;1.50;;
58372;SDS011;44177;43.356;27.672;2022-09-13T10:31:41;2.70;;;1.55;;
58372;SDS011;44177;43.356;27.672;2022-09-13T10:34:13;2.42;;;1.52;;
58372;SDS011;44177;43.356;27.672;2022-09-13T10:37:01;3.30;;;1.55;;
58372;SDS011;44177;43.356;27.672;2022-09-13T10:39:34;1.60;;;1.50;;
58372;SDS011;44177;43.356;27.672;2022-09-13T10:44:40;1.75;;;1.50;;
58372;SDS011;44177;43.356;27.672;2022-09-13T10:47:29;1.88;;;1.45;;
58372;SDS011;44177;43.356;27.672;2022-09-13T10:49:58;1.55;;;1.45;;
58372;SDS011;44177;43.356;27.672;2022-09-13T10:52:42;2.17;;;1.35;;
58372;SDS011;44177;43.356;27.672;2022-09-13T11:00:18;2.50;;;1.58;;
58372;SDS011;44177;43.356;27.672;2022-09-13T11:10:51;2.15;;;1.33;;
58372;SDS011;44177;43.356;27.672;2022-09-13T11:22:14;2.67;;;1.38;;
58372;SDS011;44177;43.356;27.672;2022-09-13T11:31:02;1.20;;;1.10;;
58372;SDS011;44177;43.356;27.672;2022-09-13T11:39:02;1.33;;;1.23;;
58372;SDS011;44177;43.356;27.672;2022-09-13T11:44:21;2.05;;;1.20;;
58372;SDS011;44177;43.356;27.672;2022-09-13T11:57:57;1.45;;;1.10;;
58372;SDS011;44177;43.356;27.672;2022-09-13T12:00:29;1.08;;;0.98;;
58372;SDS011;44177;43.356;27.672;2022-09-13T12:03:22;1.45;;;1.10;;
58372;SDS011;44177;43.356;27.672;2022-09-13T12:06:00;1.50;;;1.20;;
58372;SDS011;44177;43.356;27.672;2022-09-13T12:16:19;1.25;;;1.15;;
58372;SDS011;44177;43.356;27.672;2022-09-13T12:18:50;1.55;;;1.13;;
58372;SDS011;44177;43.356;27.672;2022-09-13T12:21:24;1.10;;;1.00;;
58372;SDS011;44177;43.356;27.672;2022-09-13T12:32:02;1.15;;;0.98;;
58372;SDS011;44177;43.356;27.672;2022-09-13T12:34:47;1.17;;;1.08;;
58372;SDS011;44177;43.356;27.672;2022-09-13T12:50:39;1.50;;;1.20;;
58372;SDS011;44177;43.356;27.672;2022-09-13T12:55:46;1.38;;;1.20;;
58372;SDS011;44177;43.356;27.672;2022-09-13T13:01:22;2.05;;;1.27;;
58372;SDS011;44177;43.356;27.672;2022-09-13T13:08:59;1.05;;;0.98;;
58372;SDS011;44177;43.356;27.672;2022-09-13T13:11:29;2.75;;;1.10;;
58372;SDS011;44177;43.356;27.672;2022-09-13T13:14:24;1.33;;;1.15;;
58372;SDS011;44177;43.356;27.672;2022-09-13T13:16:53;1.13;;;1.02;;
58372;SDS011;44177;43.356;27.672;2022-09-13T13:19:32;1.02;;;0.98;;
58372;SDS011;44177;43.356;27.672;2022-09-13T13:27:55;0.90;;;0.90;;
58372;SDS011;44177;43.356;27.672;2022-09-13T13:30:41;1.05;;;1.05;;
58372;SDS011;44177;43.356;27.672;2022-09-13T13:33:22;1.15;;;1.05;;
58372;SDS011;44177;43.356;27.672;2022-09-13T13:35:50;1.20;;;1.10;;
58372;SDS011;44177;43.356;27.672;2022-09-13T13:40:47;1.13;;;0.98;;
58372;SDS011;44177;43.356;27.672;2022-09-13T13:43:29;1.05;;;0.98;;
58372;SDS011;44177;43.356;27.672;2022-09-13T13:45:59;0.90;;;0.90;;
58372;SDS011;44177;43.356;27.672;2022-09-13T13:48:45;1.08;;;1.00;;
58372;SDS011;44177;43.356;27.672;2022-09-13T13:51:15;1.08;;;0.93;;
58372;SDS011;44177;43.356;27.672;2022-09-13T13:53:48;2.72;;;0.90;;
58372;SDS011;44177;43.356;27.672;2022-09-13T13:58:53;1.00;;;1.00;;
58372;SDS011;44177;43.356;27.672;2022-09-13T14:01:25;1.20;;;0.90;;
58372;SDS011;44177;43.356;27.672;2022-09-13T14:06:29;0.90;;;0.90;;
58372;SDS011;44177;43.356;27.672;2022-09-13T14:09:11;1.13;;;1.10;;
58372;SDS011;44177;43.356;27.672;2022-09-13T14:12:20;1.85;;;1.35;;
58372;SDS011;44177;43.356;27.672;2022-09-13T14:20:57;1.20;;;1.10;;
58372;SDS011;44177;43.356;27.672;2022-09-13T14:23:24;1.10;;;1.00;;
58372;SDS011;44177;43.356;27.672;2022-09-13T14:25:55;1.00;;;1.00;;
58372;SDS011;44177;43.356;27.672;2022-09-13T14:28:22;0.80;;;0.80;;
58372;SDS011;44177;43.356;27.672;2022-09-13T14:30:51;1.27;;;1.10;;
58372;SDS011;44177;43.356;27.672;2022-09-13T14:33:23;0.90;;;0.90;;
58372;SDS011;44177;43.356;27.672;2022-09-13T14:35:59;0.80;;;0.80;;
58372;SDS011;44177;43.356;27.672;2022-09-13T14:38:27;0.75;;;0.75;;
58372;SDS011;44177;43.356;27.672;2022-09-13T14:41:09;1.13;;;0.88;;
58372;SDS011;44177;43.356;27.672;2022-09-13T14:43:38;1.10;;;0.95;;
58372;SDS011;44177;43.356;27.672;2022-09-13T14:46:15;0.80;;;0.80;;
58372;SDS011;44177;43.356;27.672;2022-09-13T14:48:48;1.35;;;0.90;;
58372;SDS011;44177;43.356;27.672;2022-09-13T14:51:20;1.00;;;0.90;;
58372;SDS011;44177;43.356;27.672;2022-09-13T14:53:51;0.85;;;0.85;;
58372;SDS011;44177;43.356;27.672;2022-09-13T14:59:03;0.98;;;0.98;;
58372;SDS011;44177;43.356;27.672;2022-09-13T15:01:36;0.93;;;0.90;;
58372;SDS011;44177;43.356;27.672;2022-09-13T15:04:02;0.80;;;0.80;;
58372;SDS011;44177;43.356;27.672;2022-09-13T15:06:33;0.85;;;0.82;;
58372;SDS011;44177;43.356;27.672;2022-09-13T15:11:36;1.00;;;1.00;;
58372;SDS011;44177;43.356;27.672;2022-09-13T15:19:29;0.93;;;0.90;;
58372;SDS011;44177;43.356;27.672;2022-09-13T15:22:03;1.17;;;1.00;;
58372;SDS011;44177;43.356;27.672;2022-09-13T15:24:44;0.82;;;0.82;;
58372;SDS011;44177;43.356;27.672;2022-09-13T15:27:16;1.67;;;1.00;;
58372;SDS011;44177;43.356;27.672;2022-09-13T15:29:48;1.02;;;0.93;;
58372;SDS011;44177;43.356;27.672;2022-09-13T15:32:22;1.10;;;1.00;;
58372;SDS011;44177;43.356;27.672;2022-09-13T15:35:15;0.85;;;0.85;;
58372;SDS011;44177;43.356;27.672;2022-09-13T15:38:07;0.80;;;0.80;;
58372;SDS011;44177;43.356;27.672;2022-09-13T15:40:46;1.00;;;0.90;;
58372;SDS011;44177;43.356;27.672;2022-09-13T15:43:21;0.93;;;0.85;;
58372;SDS011;44177;43.356;27.672;2022-09-13T15:45:47;0.90;;;0.90;;
58372;SDS011;44177;43.356;27.672;2022-09-13T15:48:30;0.98;;;0.90;;
58372;SDS011;44177;43.356;27.672;2022-09-13T15:51:05;1.00;;;1.00;;
58372;SDS011;44177;43.356;27.672;2022-09-13T15:53:31;1.15;;;1.00;;
58372;SDS011;44177;43.356;27.672;2022-09-13T15:55:56;1.00;;;1.00;;
58372;SDS011;44177;43.356;27.672;2022-09-13T15:58:22;1.00;;;0.93;;
58372;SDS011;44177;43.356;27.672;2022-09-13T16:00:47;1.27;;;1.05;;
58372;SDS011;44177;43.356;27.672;2022-09-13T16:03:13;1.08;;;0.98;;
58372;SDS011;44177;43.356;27.672;2022-09-13T16:05:38;1.10;;;1.00;;
58372;SDS011;44177;43.356;27.672;2022-09-13T16:08:05;1.27;;;0.82;;
58372;SDS011;44177;43.356;27.672;2022-09-13T16:10:33;1.40;;;1.10;;
58372;SDS011;44177;43.356;27.672;2022-09-13T16:12:58;1.10;;;0.93;;
58372;SDS011;44177;43.356;27.672;2022-09-13T16:15:24;10.70;;;1.80;;
58372;SDS011;44177;43.356;27.672;2022-09-13T16:17:49;16.95;;;1.70;;
58372;SDS011;44177;43.356;27.672;2022-09-13T16:20:15;34.30;;;2.90;;
58372;SDS011;44177;43.356;27.672;2022-09-13T16:22:41;22.20;;;2.45;;
58372;SDS011;44177;43.356;27.672;2022-09-13T16:25:07;16.67;;;2.08;;
58372;SDS011;44177;43.356;27.672;2022-09-13T16:27:33;23.65;;;2.35;;
58372;SDS011;44177;43.356;27.672;2022-09-13T16:30:00;22.05;;;2.35;;
58372;SDS011;44177;43.356;27.672;2022-09-13T16:32:25;20.35;;;2.25;;
58372;SDS011;44177;43.356;27.672;2022-09-13T16:34:51;18.20;;;2.30;;
58372;SDS011;44177;43.356;27.672;2022-09-13T16:37:17;19.17;;;1.90;;
58372;SDS011;44177;43.356;27.672;2022-09-13T16:39:43;6.45;;;1.88;;
58372;SDS011;44177;43.356;27.672;2022-09-13T16:42:10;9.13;;;1.50;;
58372;SDS011;44177;43.356;27.672;2022-09-13T16:44:37;13.30;;;2.38;;
58372;SDS011;44177;43.356;27.672;2022-09-13T16:47:03;8.77;;;1.90;;
58372;SDS011;44177;43.356;27.672;2022-09-13T16:49:28;11.07;;;1.85;;
58372;SDS011;44177;43.356;27.672;2022-09-13T16:51:54;10.50;;;1.50;;
58372;SDS011;44177;43.356;27.672;2022-09-13T16:54:23;11.02;;;1.35;;
58372;SDS011;44177;43.356;27.672;2022-09-13T16:56:49;9.30;;;1.63;;
58372;SDS011;44177;43.356;27.672;2022-09-13T16:59:14;9.38;;;1.70;;
58372;SDS011;44177;43.356;27.672;2022-09-13T17:01:40;8.15;;;2.00;;
58372;SDS011;44177;43.356;27.672;2022-09-13T17:04:05;4.97;;;1.80;;
58372;SDS011;44177;43.356;27.672;2022-09-13T17:06:32;4.53;;;1.35;;
58372;SDS011;44177;43.356;27.672;2022-09-13T17:08:58;11.45;;;1.70;;
58372;SDS011;44177;43.356;27.672;2022-09-13T17:11:26;9.35;;;1.63;;
58372;SDS011;44177;43.356;27.672;2022-09-13T17:13:57;10.63;;;1.73;;
58372;SDS011;44177;43.356;27.672;2022-09-13T17:16:25;6.82;;;1.90;;
58372;SDS011;44177;43.356;27.672;2022-09-13T17:18:57;6.38;;;1.50;;
58372;SDS011;44177;43.356;27.672;2022-09-13T17:21:24;9.20;;;1.40;;
58372;SDS011;44177;43.356;27.672;2022-09-13T17:23:50;4.85;;;1.60;;
58372;SDS011;44177;43.356;27.672;2022-09-13T17:26:16;4.97;;;1.65;;
58372;SDS011;44177;43.356;27.672;2022-09-13T17:28:42;7.78;;;1.50;;
58372;SDS011;44177;43.356;27.672;2022-09-13T17:31:07;7.53;;;1.60;;
58372;SDS011;44177;43.356;27.672;2022-09-13T17:33:33;5.72;;;1.45;;
58372;SDS011;44177;43.356;27.672;2022-09-13T17:36:09;5.97;;;1.30;;
58372;SDS011;44177;43.356;27.672;2022-09-13T17:38:37;6.00;;;1.60;;
58372;SDS011;44177;43.356;27.672;2022-09-13T17:41:04;5.28;;;1.48;;
58372;SDS011;44177;43.356;27.672;2022-09-13T17:43:35;3.38;;;1.50;;
58372;SDS011;44177;43.356;27.672;2022-09-13T17:46:05;4.03;;;1.27;;
58372;SDS011;44177;43.356;27.672;2022-09-13T17:48:32;5.68;;;1.63;;
58372;SDS011;44177;43.356;27.672;2022-09-13T17:50:59;4.00;;;1.38;;
58372;SDS011;44177;43.356;27.672;2022-09-13T17:53:29;3.97;;;1.58;;
58372;SDS011;44177;43.356;27.672;2022-09-13T17:55:55;4.18;;;1.30;;
58372;SDS011;44177;43.356;27.672;2022-09-13T17:58:24;4.15;;;1.45;;
58372;SDS011;44177;43.356;27.672;2022-09-13T18:00:58;3.95;;;1.20;;
58372;SDS011;44177;43.356;27.672;2022-09-13T18:03:25;4.35;;;1.30;;
58372;SDS011;44177;43.356;27.672;2022-09-13T18:05:54;2.45;;;1.33;;
58372;SDS011;44177;43.356;27.672;2022-09-13T18:08:21;4.78;;;1.60;;
58372;SDS011;44177;43.356;27.672;2022-09-13T18:10:47;5.50;;;1.40;;
58372;SDS011;44177;43.356;27.672;2022-09-13T18:13:13;5.05;;;2.00;;
58372;SDS011;44177;43.356;27.672;2022-09-13T18:15:38;3.95;;;1.50;;
58372;SDS011;44177;43.356;27.672;2022-09-13T18:18:04;2.08;;;1.58;;
58372;SDS011;44177;43.356;27.672;2022-09-13T18:20:29;4.38;;;1.27;;
58372;SDS011;44177;43.356;27.672;2022-09-13T18:22:55;3.90;;;1.58;;
58372;SDS011;44177;43.356;27.672;2022-09-13T18:25:21;4.70;;;1.50;;